createdAt,value
2023-04-02T00:12:31.404Z,82.8
2023-04-02T00:32:31.475Z,82.0
2023-04-02T00:52:31.334Z,82.5
2023-04-02T01:12:31.268Z,81.2
2023-04-02T01:32:31.398Z,82.6
2023-04-02T01:52:31.377Z,82.5
2023-04-02T02:12:31.314Z,83.8
2023-04-02T02:32:31.411Z,85.6
2023-04-02T02:52:31.356Z,85.9
2023-04-02T03:12:31.247Z,85.3
2023-04-02T03:32:31.186Z,85.4
2023-04-02T03:52:31.270Z,85.1
2023-04-02T04:12:31.284Z,84.5
2023-04-02T04:32:31.276Z,85.2
2023-04-02T04:52:31.204Z,84.9
2023-04-02T05:12:31.207Z,84.6
2023-04-02T05:32:31.165Z,85.1
2023-04-02T05:52:31.171Z,84.8
2023-04-02T06:12:31.163Z,84.4
2023-04-02T06:32:31.194Z,83.4
2023-04-02T06:52:31.184Z,83.2
2023-04-02T07:12:31.088Z,82.9
2023-04-02T07:32:31.086Z,82.8
2023-04-02T07:52:31.086Z,81.6
2023-04-02T08:12:31.089Z,80.6
2023-04-02T08:32:31.109Z,78.2
2023-04-02T08:52:31.273Z,77.5
2023-04-02T09:12:31.128Z,76.6
2023-04-02T09:32:31.113Z,75.6
2023-04-02T09:52:31.035Z,77.7
2023-04-02T10:12:31.095Z,74.4
2023-04-02T10:32:31.131Z,77.8
2023-04-02T10:52:31.048Z,81.7
2023-04-02T11:12:31.150Z,79.7
2023-04-02T11:32:30.972Z,77.1
2023-04-02T11:52:30.985Z,87.1
2023-04-02T12:12:31.037Z,89.7
2023-04-02T12:32:30.904Z,91.4
2023-04-02T12:52:30.915Z,92.0
2023-04-02T13:12:30.929Z,92.3
2023-04-02T13:32:30.935Z,91.7
2023-04-02T13:52:30.949Z,91.0
2023-04-02T14:12:30.860Z,90.7
2023-04-02T14:32:30.886Z,91.8
2023-04-02T14:52:30.896Z,92.2
2023-04-02T15:12:30.905Z,91.7
2023-04-02T15:32:30.813Z,91.6
2023-04-02T15:52:30.832Z,91.7
2023-04-02T16:12:30.833Z,91.1
2023-04-02T16:32:30.846Z,90.7
2023-04-02T16:52:30.856Z,89.6
2023-04-02T17:12:30.920Z,89.8
2023-04-02T17:32:30.867Z,89.6
2023-04-02T17:52:30.815Z,87.9
2023-04-02T18:12:30.823Z,87.2
2023-04-02T18:32:30.787Z,86.1
2023-04-02T18:52:30.877Z,83.8
2023-04-02T19:12:30.913Z,83.6
2023-04-02T19:32:30.803Z,83.7
2023-04-02T19:52:30.825Z,85.1
2023-04-02T20:12:30.979Z,82.5
2023-04-02T20:32:30.819Z,84.3
2023-04-02T20:52:31.008Z,85.1
2023-04-02T21:12:31.043Z,84.0
2023-04-02T21:32:30.951Z,84.0
2023-04-02T21:52:30.990Z,84.9
2023-04-02T22:12:31.038Z,86.3
2023-04-02T22:32:30.963Z,87.5
2023-04-02T22:52:31.073Z,87.1
2023-04-02T23:12:31.033Z,86.7
2023-04-02T23:32:31.058Z,87.0
2023-04-02T23:52:31.029Z,87.1
